Brunswick, GA (31523)

4:54 AM EST on February 10, 2016 (GMT -0500)
Old Town | | Change Station
CLOSE
Current Station
Personal Weather Station
Location: Brunswick, GA
Elevation: 36 ft
Nearby Weather Stations
Active Advisory: Flood Warning

Elev 36 ft 31.14 °N, 81.49 °W | Updated 13 seconds ago

Clear
Clear
34.7 °F
Feels Like 35 °F
N
0.2
Wind Variable Wind from South
Gusts 2.5 mph

Today
High -- | Low -- °F
--% Chance of Precip.
Yesterday
High -- | Low -- °F
Precip. -- in
Pressure 30.08 in
Visibility 10.0 miles
Clouds Clear
Windchill 35 °F
Dew Point 26 °F
Humidity 69%
Rainfall 0.00 in
Snow Depth Not available.
7:11 AM 6:08 PM
Waxing Crescent, 4% visible
METAR KBQK 100935Z AUTO 27004KT 10SM CLR 00/M02 A3008 RMK AO2
Pressure 30.08 in
Visibility 10.0 miles
Clouds Clear
Windchill 35 °F
Dew Point 26 °F
Humidity 69%
Rainfall 0.00 in
Snow Depth Not available.
7:11 AM 6:08 PM
Waxing Crescent, 4% visible
METAR KBQK 100935Z AUTO 27004KT 10SM CLR 00/M02 A3008 RMK AO2

10-Day Weather Forecast

Almanac

Astronomy

Feb. 10, 2016 Rise Set
Actual Time
Civil Twilight
Nautical Twilight
Astronomical Twilight
Moon
Length of Visible Light
Length of Day
Tomorrow will be .
, % of the Moon is Illuminated

Today's Extremes

State Highs State Lows

Community

WunderPhotos

Upload Photos

1,891,826 photos uploaded!

WunderBlog® & News

Nearby

Air Quality

  Air Quality AQ Index Pollutant
Not available.

Snow Depth

Station Depth Elevation

Earthquake Activity

City Distance Mag. Time & Date
Minimum magnitude displayed is 2.5.

Coastal Water Temperatures

Place Temperature

Stations

Nearby Weather Stations

Station Location Temp. Windchill Dew Point Humidity Wind Precip. Elev Updated Type
                   

Watches & Warnings

Flood Warning
Issued: 8:20 PM EST Feb. 9, 2016 – National Weather Service

The Flood Warning continues for
the Altamaha river at Everett city.
* Until further notice... or until the warning is cancelled.
* At 7:15 PM Tuesday the stage was 13.8 feet.
* Moderate flooding is occurring and moderate flooding is forecast.
* Flood stage is 12.0 feet.
* Forecast... the river will remain near 13.8 feet.
* Impact... at 13.0 feet... water begins to encroach upon Altamaha
regional park in Glynn County. This inlcudes Altamaha Park Road,
Betty Lott Lane and Bee Tree Island Road. In McIntosh County,
Barrington Park at the end of Harper Lake Road begins to flood.
Blue reach Road also begins to flood near the Long County line.
* Impact... at 12.0 feet... agricultural and Timber lands near the river
are flooded.





               Fld observed 7am EST / 8am EDT forecast
location stg stg day time Wed Thu Fri Sat sun

Altamaha
Everett cit 12 13.8 Tue 07 PM 13.8 13.6 13.5 13.4 13.4



Lat... Lon 3152 8172 3139 8162 3130 8144 3138 8142 3143 8155 3155 8162